createdAt,value
2022-10-16T00:02:21.454Z,100430.78
2022-10-16T00:04:51.823Z,100428.16
2022-10-16T00:07:19.876Z,100439.03
2022-10-16T00:09:53.351Z,100445.75
2022-10-16T00:12:25.323Z,100446.66
2022-10-16T00:14:54.366Z,100446.00
2022-10-16T00:17:22.209Z,100440.16
2022-10-16T00:19:51.229Z,100426.69
2022-10-16T00:22:18.931Z,100449.19
2022-10-16T00:24:47.062Z,100448.19
2022-10-16T00:27:20.815Z,100452.25
2022-10-16T00:29:55.664Z,100456.22
2022-10-16T00:32:24.128Z,100454.09
2022-10-16T00:35:02.864Z,100455.44
2022-10-16T00:37:30.939Z,100463.78
2022-10-16T00:40:09.911Z,100459.38
2022-10-16T00:42:38.055Z,100466.84
2022-10-16T00:45:11.787Z,100472.78
2022-10-16T00:47:42.835Z,100459.56
2022-10-16T00:50:15.523Z,100454.28
2022-10-16T00:52:51.772Z,100462.31
2022-10-16T00:55:20.612Z,100469.03
2022-10-16T00:57:50.008Z,100476.53
2022-10-16T01:00:23.035Z,100469.91
2022-10-16T01:03:03.753Z,100471.69
2022-10-16T01:05:49.555Z,100468.63
2022-10-16T01:08:24.080Z,100471.16
2022-10-16T01:10:59.602Z,100477.22
2022-10-16T01:13:33.994Z,100473.91
2022-10-16T01:16:08.862Z,100468.84
2022-10-16T01:18:41.451Z,100457.72
2022-10-16T01:21:15.394Z,100461.13
2022-10-16T01:23:58.687Z,100460.34
2022-10-16T01:26:38.351Z,100472.16
2022-10-16T01:29:23.104Z,100480.50
2022-10-16T01:31:59.412Z,100485.56
2022-10-16T01:34:37.462Z,100487.00
2022-10-16T01:37:13.815Z,100481.81
2022-10-16T01:39:47.218Z,100480.19
2022-10-16T01:42:19.883Z,100487.88
2022-10-16T01:44:51.420Z,100483.56
2022-10-16T01:47:34.714Z,100489.41
2022-10-16T01:50:06.756Z,100486.66
2022-10-16T01:52:45.631Z,100489.94
2022-10-16T01:55:16.655Z,100496.53
2022-10-16T01:57:49.899Z,100461.94
2022-10-16T02:00:23.733Z,100483.66
2022-10-16T02:02:57.212Z,100490.00
2022-10-16T02:05:30.506Z,100482.72
2022-10-16T02:08:00.511Z,100472.97
2022-10-16T02:10:32.611Z,100488.78
2022-10-16T02:13:05.810Z,100486.78
2022-10-16T02:15:37.535Z,100499.44
2022-10-16T02:18:09.517Z,100496.91
2022-10-16T02:20:50.029Z,100510.94
2022-10-16T02:23:29.111Z,100505.00
2022-10-16T02:26:00.897Z,100505.88
2022-10-16T02:28:39.209Z,100511.69
2022-10-16T02:31:12.267Z,100521.59
2022-10-16T02:33:42.743Z,100528.28
2022-10-16T02:36:11.687Z,100529.72
2022-10-16T02:38:41.668Z,100524.41
2022-10-16T02:41:09.910Z,100515.94
2022-10-16T02:43:37.775Z,100508.88
2022-10-16T02:46:07.221Z,100496.50
2022-10-16T02:48:41.061Z,100505.00
2022-10-16T02:51:16.326Z,100514.09
2022-10-16T02:53:51.567Z,100519.81
2022-10-16T02:58:55.702Z,100512.50
2022-10-16T03:01:28.027Z,100519.09
2022-10-16T03:04:00.236Z,100521.50
2022-10-16T03:06:37.305Z,100517.97
2022-10-16T03:09:05.110Z,100505.34
2022-10-16T03:11:32.889Z,100518.38
2022-10-16T03:14:03.013Z,100511.28
2022-10-16T03:16:30.955Z,100527.22
2022-10-16T03:19:02.854Z,100533.28
2022-10-16T03:21:31.028Z,100532.28
2022-10-16T03:24:00.803Z,100533.69
2022-10-16T03:26:28.568Z,100536.09
2022-10-16T03:28:56.491Z,100540.38
2022-10-16T03:31:24.494Z,100527.63
2022-10-16T03:33:54.821Z,100515.13
2022-10-16T03:36:28.488Z,100525.72
2022-10-16T03:39:02.404Z,100519.03
2022-10-16T03:41:30.287Z,100508.69
2022-10-16T03:43:58.409Z,100530.31
2022-10-16T03:46:28.571Z,100523.25
2022-10-16T03:48:58.089Z,100517.91
2022-10-16T03:51:33.002Z,100522.75
2022-10-16T03:54:00.858Z,100527.53
2022-10-16T03:56:31.949Z,100516.44
2022-10-16T03:59:21.155Z,100515.66
2022-10-16T04:01:48.953Z,100525.38
2022-10-16T04:04:19.467Z,100523.25
2022-10-16T04:06:58.939Z,100521.44
2022-10-16T04:09:28.942Z,100522.84
2022-10-16T04:12:08.065Z,100529.56
2022-10-16T04:14:36.994Z,100533.13
2022-10-16T04:17:07.165Z,100543.88
2022-10-16T04:19:37.237Z,100546.66
2022-10-16T04:22:23.702Z,100541.22
2022-10-16T04:24:55.086Z,100545.16
2022-10-16T04:27:22.998Z,100544.13
2022-10-16T04:29:50.901Z,100538.97
2022-10-16T04:32:32.698Z,100550.94
2022-10-16T04:35:00.826Z,100552.63
2022-10-16T04:37:29.931Z,100556.50
2022-10-16T04:40:04.280Z,100530.00
2022-10-16T04:42:32.031Z,100551.69
2022-10-16T04:44:59.925Z,100552.59
2022-10-16T04:47:28.117Z,100554.38
2022-10-16T04:50:03.274Z,100549.53
2022-10-16T04:55:10.901Z,100555.50
2022-10-16T04:57:38.737Z,100561.03
2022-10-16T05:00:07.686Z,100550.78
2022-10-16T05:02:38.847Z,100557.34
2022-10-16T05:05:08.693Z,100571.50
2022-10-16T05:07:50.572Z,100568.88
2022-10-16T05:10:21.558Z,100574.16
2022-10-16T05:12:58.509Z,100580.34
2022-10-16T05:15:28.077Z,100581.97
2022-10-16T05:18:00.837Z,100583.66
2022-10-16T05:20:29.522Z,100585.28
2022-10-16T05:22:58.858Z,100583.50
2022-10-16T05:25:28.854Z,100589.22
2022-10-16T05:28:04.224Z,100595.91
2022-10-16T05:30:46.054Z,100589.09
2022-10-16T05:33:25.934Z,100588.34
2022-10-16T05:35:55.078Z,100603.38
2022-10-16T05:38:38.233Z,100609.44
2022-10-16T05:41:08.093Z,100607.94
2022-10-16T05:43:38.317Z,100606.91
2022-10-16T05:46:07.611Z,100602.59
2022-10-16T05:48:41.780Z,100594.16
2022-10-16T05:51:13.612Z,100585.94
2022-10-16T05:56:15.769Z,100606.81
2022-10-16T05:58:45.838Z,100602.25
2022-10-16T06:01:19.046Z,100614.28
2022-10-16T06:03:47.063Z,100612.63
2022-10-16T06:06:21.200Z,100605.06
2022-10-16T06:08:51.299Z,100601.13
2022-10-16T06:11:20.994Z,100610.75
2022-10-16T06:13:51.661Z,100615.41
2022-10-16T06:16:19.900Z,100619.31
2022-10-16T06:18:51.252Z,100613.84
2022-10-16T06:21:21.499Z,100614.34
2022-10-16T06:23:50.795Z,100627.63
2022-10-16T06:29:34.017Z,100647.72
2022-10-16T06:32:01.889Z,100645.53
2022-10-16T06:34:30.042Z,100646.25
2022-10-16T06:37:09.830Z,100647.53
2022-10-16T06:39:42.493Z,100651.22
2022-10-16T06:42:15.268Z,100652.56
2022-10-16T06:44:45.458Z,100657.28
2022-10-16T06:47:15.980Z,100663.56
2022-10-16T06:49:43.924Z,100664.47
2022-10-16T06:52:11.676Z,100669.97
2022-10-16T06:54:42.599Z,100673.13
2022-10-16T06:57:18.382Z,100676.41
2022-10-16T06:59:54.567Z,100676.47
2022-10-16T07:02:25.681Z,100675.41
2022-10-16T07:04:53.746Z,100676.75
2022-10-16T07:10:10.158Z,100672.97
2022-10-16T07:12:46.093Z,100683.72
2022-10-16T07:15:13.969Z,100649.94
2022-10-16T07:17:41.829Z,100688.63
2022-10-16T07:20:12.190Z,100696.63
2022-10-16T07:22:56.182Z,100699.81
2022-10-16T07:25:23.983Z,100707.19
2022-10-16T07:27:57.040Z,100700.88
2022-10-16T07:30:39.299Z,100690.25
2022-10-16T07:33:14.311Z,100697.69
2022-10-16T07:35:52.639Z,100697.09
2022-10-16T07:38:21.750Z,100721.84
2022-10-16T07:40:49.798Z,100719.63
2022-10-16T07:43:21.787Z,100718.81
2022-10-16T07:48:24.610Z,100731.66
2022-10-16T07:51:01.952Z,100729.28
2022-10-16T07:53:31.131Z,100734.13
2022-10-16T07:56:03.090Z,100746.50
2022-10-16T07:58:32.601Z,100744.75
2022-10-16T08:01:14.295Z,100739.13
2022-10-16T08:03:44.170Z,100735.78
2022-10-16T08:06:12.067Z,100748.09
2022-10-16T08:08:40.310Z,100746.09
2022-10-16T08:11:27.122Z,100761.78
2022-10-16T08:13:59.029Z,100764.97
2022-10-16T08:16:30.658Z,100772.03
2022-10-16T08:18:58.479Z,100770.03
2022-10-16T08:21:40.482Z,100775.81
2022-10-16T08:24:09.645Z,100768.63
2022-10-16T08:26:44.714Z,100778.69
2022-10-16T08:29:15.882Z,100774.50
2022-10-16T08:34:39.297Z,100770.66
2022-10-16T08:37:22.568Z,100777.44
2022-10-16T08:39:57.590Z,100787.16
2022-10-16T08:42:46.455Z,100779.25
2022-10-16T08:45:47.697Z,100781.47
2022-10-16T08:48:24.983Z,100787.31
2022-10-16T08:50:54.151Z,100792.63
2022-10-16T08:53:54.770Z,100796.81
2022-10-16T08:56:23.911Z,100792.19
2022-10-16T08:58:56.523Z,100802.00
2022-10-16T09:01:41.188Z,100795.47
2022-10-16T09:04:49.342Z,100806.75
2022-10-16T09:07:28.785Z,100804.44
2022-10-16T09:10:16.179Z,100804.34
2022-10-16T09:12:54.882Z,100806.44
2022-10-16T09:15:37.571Z,100806.88
2022-10-16T09:18:28.657Z,100804.53
2022-10-16T09:21:10.490Z,100810.06
2022-10-16T09:23:42.321Z,100819.00
2022-10-16T09:26:29.660Z,100829.31
2022-10-16T09:29:00.367Z,100830.59
2022-10-16T09:31:28.332Z,100827.84
2022-10-16T09:34:09.194Z,100842.66
2022-10-16T09:36:46.950Z,100838.66
2022-10-16T09:39:14.976Z,100834.78
2022-10-16T09:41:46.102Z,100830.50
2022-10-16T09:44:24.489Z,100846.59
2022-10-16T09:47:05.794Z,100844.28
2022-10-16T09:49:35.159Z,100846.81
2022-10-16T09:52:15.093Z,100853.09
2022-10-16T09:54:52.460Z,100858.44
2022-10-16T09:57:20.984Z,100854.97
2022-10-16T09:59:50.350Z,100869.78
2022-10-16T10:02:39.225Z,100866.84
2022-10-16T10:05:27.590Z,100873.28
2022-10-16T10:08:23.503Z,100876.63
2022-10-16T10:10:51.446Z,100876.38
2022-10-16T10:13:21.987Z,100876.00
2022-10-16T10:16:02.080Z,100883.75
2022-10-16T10:18:33.263Z,100880.63
2022-10-16T10:21:06.879Z,100878.94
2022-10-16T10:23:59.058Z,100889.59
2022-10-16T10:26:41.696Z,100883.13
2022-10-16T10:29:25.083Z,100884.78
2022-10-16T10:32:14.359Z,100895.06
2022-10-16T10:35:10.863Z,100888.75
2022-10-16T10:38:04.195Z,100887.22
2022-10-16T10:40:46.344Z,100903.56
2022-10-16T10:43:45.381Z,100893.06
2022-10-16T10:46:24.061Z,100904.31
2022-10-16T10:49:10.877Z,100919.25
2022-10-16T10:52:02.844Z,100919.59
2022-10-16T10:54:48.900Z,100918.75
2022-10-16T10:57:35.000Z,100878.00
2022-10-16T11:00:21.411Z,100907.81
2022-10-16T11:05:57.219Z,100905.78
2022-10-16T11:08:30.591Z,100919.38
2022-10-16T11:11:07.988Z,100910.06
2022-10-16T11:13:57.452Z,100903.41
2022-10-16T11:16:40.969Z,100917.81
2022-10-16T11:19:24.330Z,100920.19
2022-10-16T11:22:04.930Z,100921.66
2022-10-16T11:24:44.711Z,100923.66
2022-10-16T11:27:18.843Z,100921.56
2022-10-16T11:29:53.875Z,100922.81
2022-10-16T11:32:34.933Z,100925.06
2022-10-16T11:35:10.052Z,100921.63
2022-10-16T11:37:43.178Z,100930.84
2022-10-16T11:40:23.535Z,100934.31
2022-10-16T11:42:56.986Z,100933.72
2022-10-16T11:45:40.679Z,100937.88
2022-10-16T11:48:21.064Z,100937.63
2022-10-16T11:50:55.266Z,100923.25
2022-10-16T11:53:40.733Z,100937.41
2022-10-16T11:56:08.737Z,100935.38
2022-10-16T11:58:43.578Z,100930.41
2022-10-16T12:04:16.930Z,100942.09
2022-10-16T12:06:52.083Z,100947.25
2022-10-16T12:09:27.019Z,100944.22
2022-10-16T12:11:55.737Z,100963.56
2022-10-16T12:14:51.745Z,100953.94
2022-10-16T12:17:46.445Z,100961.41
2022-10-16T12:20:31.473Z,100956.44
2022-10-16T12:23:01.866Z,100952.41
2022-10-16T12:25:35.388Z,100954.63
2022-10-16T12:28:06.398Z,100950.72
2022-10-16T12:30:38.763Z,100953.44
2022-10-16T12:33:23.220Z,100961.44
2022-10-16T12:35:51.720Z,100959.59
2022-10-16T12:38:24.081Z,100956.31
2022-10-16T12:41:00.966Z,100958.31
2022-10-16T12:43:38.957Z,100964.19
2022-10-16T12:46:35.527Z,100958.56
2022-10-16T12:49:36.375Z,100962.59
2022-10-16T12:52:05.433Z,100972.50
2022-10-16T12:54:38.146Z,100976.72
2022-10-16T12:57:20.752Z,100973.28
2022-10-16T12:59:57.617Z,100974.19
2022-10-16T13:03:10.329Z,100982.69
2022-10-16T13:06:00.546Z,100984.34
2022-10-16T13:08:55.564Z,100983.53
2022-10-16T13:11:42.159Z,100990.75
2022-10-16T13:14:29.935Z,100995.31
2022-10-16T13:17:13.611Z,101003.94
2022-10-16T13:19:51.031Z,100992.84
2022-10-16T13:22:34.189Z,101001.66
2022-10-16T13:25:18.625Z,101010.63
2022-10-16T13:27:54.623Z,100994.59
2022-10-16T13:30:28.273Z,101004.63
2022-10-16T13:33:04.678Z,101011.88
2022-10-16T13:35:34.449Z,101011.41
2022-10-16T13:38:13.659Z,101011.97
2022-10-16T13:40:52.011Z,101017.91
2022-10-16T13:43:21.793Z,101012.97
2022-10-16T13:45:58.418Z,101014.94
2022-10-16T13:48:26.308Z,101017.81
2022-10-16T13:51:01.992Z,101025.38
2022-10-16T13:53:32.942Z,101002.97
2022-10-16T13:56:05.191Z,101012.28
2022-10-16T13:58:33.160Z,101024.25
2022-10-16T14:01:03.214Z,101024.75
2022-10-16T14:03:32.575Z,101018.06
2022-10-16T14:06:02.527Z,101009.97
2022-10-16T14:08:46.978Z,101027.25
2022-10-16T14:11:47.518Z,101028.16
2022-10-16T14:14:25.360Z,101035.91
2022-10-16T14:16:56.059Z,101036.13
2022-10-16T14:19:30.191Z,101044.59
2022-10-16T14:21:59.356Z,101053.13
2022-10-16T14:24:48.625Z,101054.34
2022-10-16T14:27:39.221Z,101057.06
2022-10-16T14:30:24.792Z,101064.13
2022-10-16T14:33:01.064Z,101043.66
2022-10-16T14:35:40.473Z,101053.28
2022-10-16T14:38:20.716Z,101059.06
2022-10-16T14:41:01.445Z,101062.41
2022-10-16T14:43:35.879Z,101062.31
2022-10-16T14:46:05.975Z,101062.19
2022-10-16T14:48:37.625Z,101028.56
2022-10-16T14:51:07.264Z,101068.00
2022-10-16T14:53:35.514Z,101057.56
2022-10-16T14:56:10.779Z,101071.13
2022-10-16T14:58:42.514Z,101065.03
2022-10-16T15:01:12.472Z,101063.22
2022-10-16T15:03:40.841Z,101050.75
2022-10-16T15:06:14.926Z,101059.50
2022-10-16T15:08:45.321Z,101067.72
2022-10-16T15:11:35.521Z,101063.97
2022-10-16T15:14:04.483Z,101079.84
2022-10-16T15:16:37.723Z,101078.75
2022-10-16T15:19:06.607Z,101080.88
2022-10-16T15:21:37.530Z,101087.44
2022-10-16T15:24:10.949Z,101069.03
2022-10-16T15:26:40.896Z,101094.28
2022-10-16T15:29:08.978Z,101102.47
2022-10-16T15:31:45.674Z,101092.53
2022-10-16T15:34:14.170Z,101096.44
2022-10-16T15:36:42.511Z,101099.09
2022-10-16T15:39:15.496Z,101099.44
2022-10-16T15:41:46.257Z,101103.75
2022-10-16T15:44:14.719Z,101102.19
2022-10-16T15:47:15.473Z,101107.97
2022-10-16T15:49:43.367Z,101112.25
2022-10-16T15:52:11.315Z,101119.44
2022-10-16T15:54:40.582Z,101119.09
2022-10-16T15:57:09.710Z,101114.41
2022-10-16T15:59:37.483Z,101111.16
2022-10-16T16:02:05.343Z,101109.72
2022-10-16T16:04:43.371Z,101108.16
2022-10-16T16:07:12.154Z,101120.28
2022-10-16T16:09:40.208Z,101122.47
2022-10-16T16:12:09.442Z,101125.34
2022-10-16T16:14:43.674Z,101131.47
2022-10-16T16:17:11.521Z,101129.25
2022-10-16T16:19:39.383Z,101142.72
2022-10-16T16:22:09.537Z,101146.25
2022-10-16T16:27:39.422Z,101139.69
2022-10-16T16:30:18.291Z,101141.91
2022-10-16T16:33:03.444Z,101137.88
2022-10-16T16:35:50.004Z,101141.97
2022-10-16T16:38:19.585Z,101142.41
2022-10-16T16:40:56.207Z,101142.69
2022-10-16T16:43:27.956Z,101150.34
2022-10-16T16:46:10.756Z,101154.16
2022-10-16T16:48:39.232Z,101163.59
2022-10-16T16:51:16.063Z,101159.31
2022-10-16T16:54:13.698Z,101172.50
2022-10-16T16:56:56.710Z,101175.66
2022-10-16T16:59:28.630Z,101176.81
2022-10-16T17:02:03.986Z,101182.66
2022-10-16T17:07:28.770Z,101187.19
2022-10-16T17:09:57.789Z,101182.47
2022-10-16T17:12:32.473Z,101170.00
2022-10-16T17:15:14.104Z,101172.66
2022-10-16T17:20:52.803Z,101201.38
2022-10-16T17:23:22.055Z,101189.84
2022-10-16T17:26:03.800Z,101207.47
2022-10-16T17:28:44.866Z,101199.09
2022-10-16T17:31:17.142Z,101205.44
2022-10-16T17:33:48.674Z,101210.63
2022-10-16T17:36:16.860Z,101215.31
2022-10-16T17:38:48.285Z,101214.03
2022-10-16T17:41:18.113Z,101215.56
2022-10-16T17:43:49.765Z,101213.00
2022-10-16T17:46:21.014Z,101215.31
2022-10-16T17:48:50.852Z,101219.91
2022-10-16T17:51:23.096Z,101217.75
2022-10-16T17:53:56.408Z,101229.16
2022-10-16T17:56:25.220Z,101228.66
2022-10-16T17:58:59.616Z,101229.03
2022-10-16T18:01:31.258Z,101232.31
2022-10-16T18:04:09.137Z,101229.94
2022-10-16T18:06:37.834Z,101237.19
2022-10-16T18:09:06.313Z,101241.00
2022-10-16T18:11:35.005Z,101241.25
2022-10-16T18:16:46.474Z,101240.50
2022-10-16T18:19:14.791Z,101259.06
2022-10-16T18:21:45.415Z,101260.59
2022-10-16T18:24:13.715Z,101259.69
2022-10-16T18:26:41.456Z,101258.81
2022-10-16T18:29:18.142Z,101263.88
2022-10-16T18:31:48.953Z,101258.81
2022-10-16T18:34:27.205Z,101258.69
2022-10-16T18:36:57.890Z,101252.59
2022-10-16T18:39:25.724Z,101250.81
2022-10-16T18:42:00.074Z,101256.53
2022-10-16T18:44:29.021Z,101239.81
2022-10-16T18:46:59.146Z,101265.94
2022-10-16T18:49:30.564Z,101261.25
2022-10-16T18:51:58.702Z,101262.50
2022-10-16T18:54:26.668Z,101259.84
2022-10-16T18:56:55.054Z,101259.59
2022-10-16T18:59:23.111Z,101270.59
2022-10-16T19:01:52.542Z,101275.56
2022-10-16T19:04:23.763Z,101276.31
2022-10-16T19:06:53.967Z,101295.34
2022-10-16T19:09:23.917Z,101286.47
2022-10-16T19:14:36.324Z,101294.22
2022-10-16T19:17:04.219Z,101296.63
2022-10-16T19:19:39.612Z,101288.28
2022-10-16T19:22:28.197Z,101287.09
2022-10-16T19:25:04.064Z,101274.16
2022-10-16T19:27:32.684Z,101274.16
2022-10-16T19:30:00.470Z,101275.56
2022-10-16T19:32:28.650Z,101273.03
2022-10-16T19:34:58.019Z,101255.59
2022-10-16T19:37:39.785Z,101270.09
2022-10-16T19:40:08.966Z,101265.38
2022-10-16T19:42:38.454Z,101270.34
2022-10-16T19:45:07.099Z,101274.28
2022-10-16T19:47:37.171Z,101279.81
2022-10-16T19:50:09.990Z,101264.91
2022-10-16T19:52:38.430Z,101276.97
2022-10-16T19:55:12.193Z,101287.00
2022-10-16T19:57:40.855Z,101289.91
2022-10-16T20:00:10.250Z,101294.97
2022-10-16T20:02:40.745Z,101297.41
2022-10-16T20:05:12.951Z,101303.09
2022-10-16T20:10:27.470Z,101293.72
2022-10-16T20:12:55.376Z,101289.00
2022-10-16T20:15:23.394Z,101296.97
2022-10-16T20:17:51.202Z,101302.84
2022-10-16T20:20:23.154Z,101311.47
2022-10-16T20:23:04.809Z,101318.19
2022-10-16T20:25:36.423Z,101316.53
2022-10-16T20:28:08.509Z,101317.16
2022-10-16T20:30:37.261Z,101314.06
2022-10-16T20:33:08.278Z,101326.91
2022-10-16T20:35:42.488Z,101323.59
2022-10-16T20:38:10.429Z,101331.81
2022-10-16T20:40:43.525Z,101332.72
2022-10-16T20:43:14.008Z,101341.38
2022-10-16T20:45:42.756Z,101340.47
2022-10-16T20:48:12.182Z,101332.59
2022-10-16T20:50:42.975Z,101342.38
2022-10-16T20:53:11.001Z,101342.25
2022-10-16T20:55:39.064Z,101333.50
2022-10-16T20:58:07.051Z,101343.66
2022-10-16T21:00:37.733Z,101339.31
2022-10-16T21:03:05.914Z,101340.28
2022-10-16T21:05:34.604Z,101351.25
2022-10-16T21:08:04.235Z,101340.34
2022-10-16T21:10:32.758Z,101337.19
2022-10-16T21:13:00.677Z,101323.06
2022-10-16T21:15:28.754Z,101335.25
2022-10-16T21:17:56.555Z,101334.66
2022-10-16T21:20:24.786Z,101334.78
2022-10-16T21:22:52.708Z,101331.34
2022-10-16T21:25:29.899Z,101329.44
2022-10-16T21:27:57.740Z,101319.38
2022-10-16T21:30:25.606Z,101335.75
2022-10-16T21:32:53.547Z,101326.44
2022-10-16T21:35:21.563Z,101350.47
2022-10-16T21:37:49.957Z,101351.50
2022-10-16T21:40:27.763Z,101361.66
2022-10-16T21:42:57.097Z,101356.31
2022-10-16T21:45:24.914Z,101370.34
2022-10-16T21:47:52.779Z,101358.53
2022-10-16T21:50:20.912Z,101363.47
2022-10-16T21:52:57.882Z,101360.94
2022-10-16T21:55:37.348Z,101363.22
2022-10-16T21:58:06.616Z,101322.53
2022-10-16T22:00:34.384Z,101348.97
2022-10-16T22:03:02.259Z,101339.44
2022-10-16T22:05:30.128Z,101334.13
2022-10-16T22:07:57.968Z,101345.63
2022-10-16T22:10:29.902Z,101361.94
2022-10-16T22:12:57.647Z,101352.16
2022-10-16T22:15:26.803Z,101339.59
2022-10-16T22:17:54.522Z,101323.19
2022-10-16T22:20:22.397Z,101313.56
2022-10-16T22:22:50.186Z,101326.44
2022-10-16T22:25:18.766Z,101328.41
2022-10-16T22:27:46.642Z,101353.22
2022-10-16T22:30:14.545Z,101353.84
2022-10-16T22:32:44.836Z,101343.56
2022-10-16T22:35:12.700Z,101343.56
2022-10-16T22:37:40.620Z,101336.56
2022-10-16T22:40:10.120Z,101343.91
2022-10-16T22:42:37.872Z,101349.84
2022-10-16T22:45:09.284Z,101353.72
2022-10-16T22:47:37.262Z,101351.19
2022-10-16T22:50:07.622Z,101342.25
2022-10-16T22:52:36.594Z,101339.47
2022-10-16T22:55:14.899Z,101344.66
2022-10-16T22:57:43.311Z,101340.34
2022-10-16T23:00:13.954Z,101337.53
2022-10-16T23:02:41.802Z,101336.44
2022-10-16T23:05:13.821Z,101337.34
2022-10-16T23:07:46.579Z,101331.03
2022-10-16T23:10:14.310Z,101321.25
2022-10-16T23:12:42.249Z,101324.94
2022-10-16T23:15:16.402Z,101333.16
2022-10-16T23:17:43.949Z,101320.69
2022-10-16T23:20:28.484Z,101319.41
2022-10-16T23:22:56.147Z,101321.38
2022-10-16T23:25:26.959Z,101316.94
2022-10-16T23:27:55.266Z,101307.44
2022-10-16T23:30:32.180Z,101307.91
2022-10-16T23:33:01.931Z,101323.53
2022-10-16T23:35:31.128Z,101326.81
2022-10-16T23:37:59.216Z,101328.78
2022-10-16T23:40:40.900Z,101324.22
2022-10-16T23:43:08.675Z,101325.72
2022-10-16T23:45:38.878Z,101318.97
2022-10-16T23:48:12.474Z,101322.16
2022-10-16T23:50:41.674Z,101313.69
2022-10-16T23:53:10.293Z,101313.84
2022-10-16T23:55:38.961Z,101311.72
2022-10-16T23:58:09.086Z,101313.53
